• Join FlightAware (Why Join?)
  • Login
  • US Flag GB Flag 
14:18 EDT


 

Airport Tracker/Info


-or-


 

Live Flight TrackerFlight Track Log ✈ AFL150 ✈ 30-Dec-2013 ✈ UUEE / SVO - MUHA / HAV

Flight Track Log - Related Links

Times and Time Zones

All times are in EST time to prevent confusion due to time zone crossing. See the AFL150 flight status page for this flight to view local times or setup timezone preferences in your user account.

Time Position Orientation Groundspeed Altitude Reporting Facility
EST Latitude Longitude Course Direction KTS MPH feet Rate Location/Type
09:43 58.9955 -38.2021 307° West  Level Estimated
09:44 58.9368 -38.4023 240° Southwest  Level Estimated
09:45 58.8777 -38.6017 240° Southwest  Level Estimated
09:46 58.8183 -38.8005 240° Southwest  Level Estimated
09:47 58.7586 -38.9986 240° Southwest  Level Estimated
09:48 58.6986 -39.1960 240° Southwest  Level Estimated
09:49 58.6382 -39.3927 240° Southwest  Level Estimated
09:50 58.5776 -39.5888 239° Southwest  Level Estimated
09:51 58.5167 -39.7842 239° Southwest  Level Estimated
09:52 58.4555 -39.9789 239° Southwest  Level Estimated
09:53 58.3941 -40.1729 239° Southwest  Level Estimated
09:54 58.3323 -40.3662 239° Southwest  Level Estimated
09:55 58.2702 -40.5588 239° Southwest  Level Estimated
09:56 58.2078 -40.7508 238° Southwest  Level Estimated
09:57 58.1452 -40.9421 238° Southwest  Level Estimated
09:58 58.0822 -41.1328 238° Southwest  Level Estimated
09:59 58.0190 -41.3227 238° Southwest  Level Estimated
10:00 57.9555 -41.5120 238° Southwest  Level Estimated
10:01 57.8917 -41.7006 238° Southwest  Level Estimated
10:02 57.8277 -41.8886 237° Southwest  Level Estimated
10:03 57.7633 -42.0759 237° Southwest  Level Estimated
10:04 57.6987 -42.2625 237° Southwest  Level Estimated
10:05 57.6338 -42.4484 237° Southwest  Level Estimated
10:06 57.5687 -42.6337 237° Southwest  Level Estimated
10:07 57.5032 -42.8183 237° Southwest  Level Estimated
10:08 57.4375 -43.0023 236° Southwest  Level Estimated
10:09 57.3716 -43.1856 236° Southwest  Level Estimated
10:10 57.3053 -43.3682 236° Southwest  Level Estimated
10:11 57.2388 -43.5502 236° Southwest  Level Estimated
10:12 57.1721 -43.7315 236° Southwest  Level Estimated
10:13 57.1051 -43.9122 236° Southwest  Level Estimated
10:14 57.0378 -44.0922 236° Southwest  Level Estimated
10:15 56.9702 -44.2716 235° Southwest  Level Estimated
10:16 56.9025 -44.4503 235° Southwest  Level Estimated
10:17 56.8344 -44.6283 235° Southwest  Level Estimated
10:18 56.7661 -44.8058 235° Southwest  Level Estimated
10:19 56.6976 -44.9825 235° Southwest  Level Estimated
10:20 56.6288 -45.1587 235° Southwest  Level Estimated
10:21 56.5597 -45.3341 235° Southwest  Level Estimated
10:22 56.4904 -45.5090 234° Southwest  Level Estimated
10:23 56.4209 -45.6832 234° Southwest  Level Estimated
10:24 56.3511 -45.8568 234° Southwest  Level Estimated
10:25 56.2811 -46.0297 234° Southwest  Level Estimated
10:26 56.2108 -46.2020 234° Southwest  Level Estimated
10:27 56.1404 -46.3737 234° Southwest  Level Estimated
10:28 56.0696 -46.5447 234° Southwest  Level Estimated
10:29 55.9986 -46.7151 233° Southwest  Level Estimated
10:30 55.9274 -46.8849 233° Southwest  Level Estimated
10:31 55.8560 -47.0541 233° Southwest  Level Estimated
10:32 55.7843 -47.2226 233° Southwest  Level Estimated
10:33 55.7124 -47.3905 233° Southwest  Level Estimated
10:34 55.6403 -47.5578 233° Southwest  Level Estimated
10:35 55.5680 -47.7245 233° Southwest  Level Estimated
10:36 55.4954 -47.8906 232° Southwest  Level Estimated
10:37 55.4226 -48.0560 232° Southwest  Level Estimated
10:38 55.3495 -48.2209 232° Southwest  Level Estimated
10:38 63.1667 -54.8167 231° Southwest 240 276 36,000  Level Gander Center
10:39 55.2763 -48.3851 232° Southwest  Level Estimated
10:39 63.1167 -55.0500 245° Southwest 390 449 36,000  Level Gander Center
10:40 55.2028 -48.5488 232° Southwest  Level Estimated
10:40 63.0667 -55.3167 248° West 430 495 36,000  Level Gander Center
10:41 55.1291 -48.7118 232° Southwest  Level Estimated
10:41 63.0167 -55.5500 245° Southwest 440 506 36,000  Level Gander Center
10:42 55.0552 -48.8742 232° Southwest  Level Estimated
10:42 62.9667 -55.7833 245° Southwest 440 506 36,000  Level Gander Center
10:43 54.9813 -49.0357 231° Southwest  Level Estimated
10:43 62.9000 -56.0167 238° Southwest 440 506 36,000  Level Gander Center
10:44 62.8500 -56.2333 243° Southwest 440 506 36,000  Level Gander Center
10:45 62.8000 -56.4667 245° Southwest 440 506 36,000  Level Gander Center
10:46 62.7333 -56.6833 236° Southwest 430 495 36,000  Level Gander Center
10:47 62.6667 -56.9167 238° Southwest 430 495 36,000  Level Gander Center
10:48 62.6167 -57.1667 247° West 430 495 36,000  Level Gander Center
10:49 62.5500 -57.4000 238° Southwest 440 506 36,000  Level Gander Center
10:50 62.5000 -57.6167 244° Southwest 420 483 36,000  Level Gander Center
10:51 62.4333 -57.8500 238° Southwest 430 495 36,000  Level Gander Center
10:52 62.3667 -58.0667 237° Southwest 430 495 36,000  Level Gander Center
10:53 62.3167 -58.2833 244° Southwest 430 495 36,000  Level Gander Center
10:54 62.2667 -58.4667 240° Southwest 420 483 36,000  Level Gander Center
10:55 62.2000 -58.7167 240° Southwest 420 483 36,000  Level Gander Center
10:56 62.1167 -58.9167 228° Southwest 380 437 36,000  Level Montreal Center
10:57 62.0667 -59.1167 242° Southwest 430 495 36,000  Level Montreal Center
10:58 62.0000 -59.3333 237° Southwest 430 495 36,000  Level Montreal Center
10:59 61.9500 -59.5500 244° Southwest 430 495 36,000  Level Montreal Center
11:00 61.8833 -59.7667 237° Southwest 430 495 36,000  Level Montreal Center
11:01 61.8000 -59.9833 231° Southwest 440 506 36,000  Level Montreal Center
11:02 61.7333 -60.1667 233° Southwest 430 495 36,000  Level Montreal Center
11:03 61.6833 -60.4167 247° West 430 495 36,000  Level Montreal Center
11:04 61.6167 -60.6333 237° Southwest 430 495 36,000  Level Montreal Center
11:05 61.5500 -60.8333 235° Southwest 430 495 36,000  Level Montreal Center
11:06 61.4833 -61.0500 237° Southwest 430 495 36,000  Level Montreal Center
11:07 61.4167 -61.2667 237° Southwest 430 495 36,000  Level Montreal Center
11:08 61.3500 -61.4667 235° Southwest 430 495 36,000  Level Montreal Center
11:09 61.2833 -61.6333 230° Southwest 430 495 36,000  Level Montreal Center
11:10 61.2167 -61.8500 237° Southwest 430 495 36,000  Level Montreal Center
11:11 61.1500 -62.0500 235° Southwest 430 495 36,000  Level Montreal Center
11:12 61.0833 -62.2500 235° Southwest 430 495 36,000  Level Montreal Center
11:13 61.0167 -62.4667 238° Southwest 430 495 36,000  Level Montreal Center
11:14 60.9500 -62.6667 236° Southwest 420 483 36,000  Level Montreal Center
11:15 60.9000 -62.8667 243° Southwest 430 495 36,000  Level Montreal Center
11:16 60.8167 -63.1167 236° Southwest 420 483 36,000  Level Gander Center
11:17 60.7500 -63.2667 228° Southwest 430 495 36,000  Level Montreal Center
11:18 60.6833 -63.4667 236° Southwest 430 495 36,000  Level Montreal Center
11:19 60.6167 -63.7167 242° Southwest 430 495 36,000  Level Gander Center
11:20 60.5333 -63.9167 230° Southwest 430 495 36,000  Level Gander Center
11:21 60.4667 -64.1167 236° Southwest 430 495 36,000  Level Gander Center
11:22 60.4000 -64.2667 228° Southwest 430 495 36,000  Level Montreal Center
11:23 60.3333 -64.4500 234° Southwest 420 483 36,000  Level Montreal Center
11:24 60.2500 -64.5833 218° Southwest 420 483 36,000  Level Montreal Center
11:25 60.1667 -64.7500 225° Southwest 420 483 36,000  Level Montreal Center
11:26 60.0500 -64.9333 218° Southwest 420 483 36,000  Level Montreal Center
11:27 59.9667 -65.0500 215° Southwest 420 483 36,000  Level Montreal Center
11:28 59.8833 -65.2167 225° Southwest 420 483 36,000  Level Montreal Center
11:29 59.7833 -65.3833 220° Southwest 420 483 36,000  Level Montreal Center
11:30 59.7000 -65.5167 219° Southwest 420 483 36,000  Level Montreal Center
11:31 59.6167 -65.6667 222° Southwest 420 483 36,000  Level Montreal Center
11:32 59.5333 -65.8333 225° Southwest 420 483 36,000  Level Montreal Center
11:33 59.4500 -65.9500 215° Southwest 420 483 36,000  Level Montreal Center
11:34 59.3500 -66.1167 220° Southwest 420 483 36,000  Level Montreal Center
11:35 59.2667 -66.2667 223° Southwest 420 483 36,000  Level Montreal Center
11:36 59.1667 -66.4000 214° Southwest 420 483 36,000  Level Montreal Center
11:37 59.0833 -66.5500 223° Southwest 410 472 36,000  Level Montreal Center
11:38 58.9833 -66.6833 215° Southwest 420 483 36,000  Level Montreal Center
11:39 58.9000 -66.8333 223° Southwest 420 483 36,000  Level Montreal Center
11:40 58.8000 -66.9833 218° Southwest 420 483 36,000  Level Montreal Center
11:41 58.7167 -67.1333 223° Southwest 420 483 36,000  Level Montreal Center
11:42 58.6167 -67.2667 215° Southwest 420 483 36,000  Level Montreal Center
11:43 58.5333 -67.4167 223° Southwest 420 483 36,000  Level Montreal Center
11:44 58.4500 -67.5333 216° Southwest 410 472 36,000  Level Montreal Center
11:45 58.3667 -67.6833 223° Southwest 410 472 36,000  Level Montreal Center
11:46 58.2667 -67.8333 218° Southwest 410 472 36,000  Level Montreal Center
11:47 58.1667 -67.9500 212° Southwest 410 472 36,000  Level Montreal Center
11:48 58.0833 -68.1000 224° Southwest 410 472 36,000  Level Montreal Center
11:49 57.9833 -68.2167 212° Southwest 410 472 36,000  Level Montreal Center
11:50 57.9167 -68.3500 227° Southwest 410 472 36,000  Level Montreal Center
11:51 57.8167 -68.4667 212° Southwest 410 472 36,000  Level Montreal Center
11:52 57.7167 -68.6167 219° Southwest 420 483 36,000  Level Montreal Center
11:53 57.6333 -68.7500 221° Southwest 420 483 36,000  Level Montreal Center
11:54 57.5333 -68.8667 212° Southwest 420 483 36,000  Level Montreal Center
11:55 57.4500 -69.0167 224° Southwest 420 483 36,000  Level Montreal Center
11:56 57.3500 -69.1500 216° Southwest 420 483 36,000  Level Montreal Center
11:57 57.2500 -69.2667 212° Southwest 420 483 36,000  Level Montreal Center
11:58 57.1833 -69.4000 227° Southwest 420 483 36,000  Level Montreal Center
11:59 57.0667 -69.5500 215° Southwest 420 483 36,000  Level Montreal Center
12:00 56.9667 -69.6667 212° Southwest 410 472 36,000  Level Montreal Center
12:01 56.9000 -69.8000 228° Southwest 410 472 36,000  Level Montreal Center
12:02 56.8000 -69.9000 209° Southwest 420 483 36,000  Level Montreal Center
12:03 56.6833 -70.0167 209° Southwest 420 483 36,000  Level Montreal Center
12:04 56.5833 -70.1500 216° Southwest 410 472 36,000  Level Montreal Center
12:05 56.5000 -70.2500 214° Southwest 410 472 36,000  Level Montreal Center
12:06 56.4000 -70.3667 213° Southwest 410 472 36,000  Level Montreal Center
12:07 56.3000 -70.4667 209° Southwest 410 472 36,000  Level Montreal Center
12:08 56.2000 -70.5667 209° Southwest 420 483 36,000  Level Montreal Center
12:09 56.1000 -70.7000 217° Southwest 410 472 36,000  Level Montreal Center
12:10 56.0167 -70.8167 218° Southwest 420 483 36,000  Level Montreal Center
12:11 55.9000 -70.9167 206° Southwest 420 483 36,000  Level Montreal Center
12:12 55.8000 -71.0167 209° Southwest 420 483 36,000  Level Montreal Center
12:13 55.7000 -71.1167 209° Southwest 420 483 36,000  Level Montreal Center
12:14 55.6000 -71.2167 209° Southwest 410 472 36,000  Level Montreal Center
12:15 55.5000 -71.3167 210° Southwest 410 472 36,000  Level Montreal Center
12:16 55.4000 -71.4500 217° Southwest 420 483 36,000  Level Montreal Center
12:17 55.3000 -71.5500 210° Southwest 420 483 36,000  Level Montreal Center
12:18 55.2000 -71.6500 210° Southwest 420 483 36,000  Level Montreal Center
12:19 55.1000 -71.7500 210° Southwest 420 483 36,000  Level Montreal Center
12:20 55.0000 -71.8500 210° Southwest 420 483 36,000  Level Montreal Center
12:21 54.9000 -71.9833 217° Southwest 420 483 36,000  Level Montreal Center
12:22 54.8000 -72.0833 210° Southwest 420 483 36,000  Level Montreal Center
12:23 54.7000 -72.1667 206° Southwest 430 495 36,000  Level Montreal Center
12:24 54.6000 -72.2667 210° Southwest 430 495 36,000  Level Montreal Center
12:25 54.4833 -72.4000 214° Southwest 430 495 36,000  Level Montreal Center
12:26 54.3833 -72.5000 210° Southwest 430 495 36,000  Level Montreal Center
12:27 54.2833 -72.5833 206° Southwest 420 483 36,000  Level Montreal Center
12:28 54.1667 -72.7167 214° Southwest 430 495 36,000  Level Montreal Center
12:29 54.0667 -72.8000 206° Southwest 430 495 36,000  Level Montreal Center
12:31 53.8667 -73.0167 213° Southwest 420 483 36,000  Level Montreal Center
12:32 53.7667 -73.1167 211° Southwest 420 483 36,000  Level Montreal Center
12:33 53.6667 -73.2000 206° Southwest 430 495 36,000  Level Montreal Center
12:34 53.5667 -73.3000 211° Southwest 430 495 36,000  Level Montreal Center
12:35 53.4500 -73.4167 211° Southwest 430 495 36,000  Level Montreal Center
12:36 53.3500 -73.5167 211° Southwest 420 483 36,000  Level Montreal Center
12:37 53.2500 -73.6000 207° Southwest 420 483 36,000  Level Montreal Center
12:38 53.1500 -73.6833 207° Southwest 430 495 36,000  Level Montreal Center
12:39 53.0333 -73.8000 211° Southwest 430 495 36,000  Level Montreal Center
12:40 52.9333 -73.9000 211° Southwest 430 495 36,000  Level Montreal Center
12:41 52.8333 -73.9833 207° Southwest 420 483 36,000  Level Montreal Center
12:42 52.7333 -74.0667 207° Southwest 430 495 36,000  Level Montreal Center
12:43 52.6167 -74.1833 211° Southwest 430 495 36,000  Level Montreal Center
12:45 52.4000 -74.3667 207° Southwest 420 483 36,000  Level Montreal Center
12:46 52.3167 -74.4500 211° Southwest 420 483 36,000  Level Montreal Center
12:47 52.2000 -74.5667 212° Southwest 420 483 36,000  Level Montreal Center
12:48 52.1000 -74.6500 207° Southwest 420 483 36,000  Level Montreal Center
12:49 51.9833 -74.7667 212° Southwest 450 518 36,000  Level Montreal Center
12:50 51.8833 -74.8500 207° Southwest 420 483 36,000  Level Montreal Center
12:51 51.7833 -74.9333 207° Southwest 420 483 36,000  Level Montreal Center
12:52 51.6833 -75.0167 207° Southwest 420 483 36,000  Level Montreal Center
12:53 51.5833 -75.1000 207° Southwest 420 483 36,000  Level Montreal Center
12:54 51.4667 -75.2000 208° Southwest 420 483 36,000  Level Montreal Center
12:55 51.3667 -75.2833 207° Southwest 420 483 36,000  Level Montreal Center
12:56 51.2667 -75.3667 208° Southwest 420 483 36,000  Level Montreal Center
12:57 51.1667 -75.4500 208° Southwest 420 483 36,000  Level Montreal Center
12:58 51.0667 -75.5333 208° Southwest 420 483 36,000  Level Montreal Center
12:59 50.9667 -75.6500 216° Southwest 420 483 36,000  Level Montreal Center
13:00 50.8500 -75.7333 204° Southwest 420 483 36,000  Level Montreal Center
13:01 50.7500 -75.8000 203° Southwest 420 483 36,000  Level Montreal Center
13:02 50.6500 -75.8833 208° Southwest 420 483 36,000  Level Montreal Center
13:03 50.5333 -76.0000 212° Southwest 430 495 36,000  Level Montreal Center
13:04 50.4333 -76.0667 203° Southwest 420 483 36,000  Level Montreal Center
13:05 50.3333 -76.1500 208° Southwest 420 483 36,000  Level Montreal Center
13:06 50.2333 -76.2333 208° Southwest 420 483 36,000  Level Montreal Center
13:07 50.1167 -76.3333 209° Southwest 420 483 36,000  Level Montreal Center
13:08 50.0000 -76.4167 205° Southwest 420 483 36,000  Level Montreal Center
13:09 49.9000 -76.4833 203° Southwest 420 483 36,000  Level Montreal Center
13:10 49.8000 -76.5667 208° Southwest 420 483 36,000  Level Montreal Center
13:11 49.7000 -76.6667 213° Southwest 420 483 36,000  Level Montreal Center
13:12 49.5833 -76.7500 205° Southwest 420 483 36,000  Level Montreal Center
13:13 49.4833 -76.8167 203° Southwest 420 483 36,000  Level Montreal Center
13:14 49.3667 -76.9000 205° Southwest 440 506 36,000  Level Montreal Center
13:15 49.2833 -77.0000 218° Southwest 410 472 36,000  Level Montreal Center
13:16 49.1667 -77.0667 200° South 420 483 36,000  Level Montreal Center
13:17 49.0667 -77.1500 209° Southwest 420 483 36,000  Level Montreal Center
13:18 48.9667 -77.2500 213° Southwest 420 483 36,000  Level Montreal Center
13:19 48.8500 -77.3167 201° Southwest 420 483 36,000  Level Montreal Center
13:20 48.7333 -77.4000 205° Southwest 410 472 36,000  Level Montreal Center
13:21 48.6333 -77.4667 204° Southwest 420 483 36,000  Level Montreal Center
13:22 48.5333 -77.5333 204° Southwest 420 483 36,000  Level Montreal Center
13:23 48.4333 -77.6333 214° Southwest 420 483 36,000  Level Montreal Center
13:24 48.3333 -77.7167 209° Southwest 420 483 36,000  Level Montreal Center
13:25 48.2333 -77.7833 204° Southwest 410 472 36,000  Level Montreal Center
13:26 48.1333 -77.8500 204° Southwest 410 472 36,000  Level Montreal Center
13:27 48.0167 -77.9333 206° Southwest 420 483 36,000  Level Montreal Center
13:28 47.9000 -77.9667 191° South 420 483 36,000  Level Montreal Center
13:29 47.8000 -78.0500 209° Southwest 420 483 36,000  Level Montreal Center
13:30 47.6833 -78.1167 201° Southwest 420 483 36,000  Level Montreal Center
13:31 47.5833 -78.1500 193° South 420 483 36,000  Level Montreal Center
13:32 47.4667 -78.2333 206° Southwest 420 483 36,000  Level Montreal Center
13:33 47.3667 -78.3000 204° Southwest 420 483 36,000  Level Montreal Center
13:34 47.2500 -78.3667 201° Southwest 420 483 36,000  Level Montreal Center
13:35 47.1500 -78.4167 199° South 410 472 36,000  Level Montreal Center
13:36 47.0333 -78.4833 201° Southwest 410 472 36,000  Level Montreal Center
13:37 46.9333 -78.5500 204° Southwest 410 472 36,000  Level Montreal Center
13:38 46.8167 -78.5833 191° South 410 472 36,000  Level Montreal Center
13:39 46.7167 -78.6667 210° Southwest 410 472 36,000  Level Montreal Center
13:40 46.6167 -78.7333 205° Southwest 410 472 36,000  Level Montreal Center
13:41 46.5167 -78.7667 193° South 400 460 36,000  Level Montreal Center
13:42 46.4000 -78.8333 202° Southwest 410 472 36,000  Level Montreal Center
13:43 46.3000 -78.8833 199° South 410 472 36,000  Level Montreal Center
13:44 46.1833 -78.9333 197° South 410 472 36,000  Level Toronto Center
13:45 46.0833 -78.9833 199° South 410 472 36,000  Level Toronto Center
13:46 45.9667 -79.0333 197° South 410 472 36,000  Level Toronto Center
13:47 45.8667 -79.1000 205° Southwest 420 483 36,000  Level Toronto Center
13:48 45.7500 -79.1500 197° South 420 483 36,000  Level Toronto Center
13:49 45.6500 -79.2000 199° South 420 483 36,000  Level Toronto Center
13:50 45.5333 -79.2833 207° Southwest 410 472 36,000  Level Toronto Center
13:51 45.4333 -79.3167 193° South 410 472 36,000  Level Toronto Center
13:52 45.3167 -79.3667 197° South 410 472 36,000  Level Toronto Center
13:53 45.2167 -79.4500 210° Southwest 410 472 36,000  Level Toronto Center
13:54 45.1000 -79.4833 191° South 410 472 36,000  Level Toronto Center
13:55 45.0000 -79.5667 211° Southwest 410 472 36,000  Level Toronto Center
13:56 44.8833 -79.6167 197° South 410 472 36,000  Level Toronto Center
13:57 44.7833 -79.6500 193° South 410 472 36,000  Level Toronto Center
13:58 44.6833 -79.7333 211° Southwest 410 472 36,000  Level Toronto Center
14:04 44.0794 -80.2437 211° Southwest 393 452 36,000  Level FlightAware ADS-B (EGSP)
14:05 44.0193 -80.2971 213° Southwest 394 453 36,000  Level FlightAware ADS-B (EGSP)
14:05 43.9663 -80.3440 212° Southwest 394 453 36,000  Level FlightAware ADS-B (CZBA)
14:06 43.9334 -80.3728 212° Southwest 393 452 36,000  Level FlightAware ADS-B (MDST / STI)
14:07 43.8608 -80.4368 212° Southwest 393 452 36,000  Level FlightAware ADS-B (MDST / STI)
14:07 43.8024 -80.4881 212° Southwest 393 452 36,000  Level FlightAware ADS-B (EGSP)
14:08 43.7298 -80.5519 212° Southwest 394 453 36,000  Level FlightAware ADS-B (CZBA)
14:08 43.6812 -80.5943 212° Southwest 394 453 36,000  Level FlightAware ADS-B (CZBA)
14:09 43.6287 -80.6401 212° Southwest 395 455 36,000  Level FlightAware ADS-B (EGSP)
14:10 43.5582 -80.7012 212° Southwest 395 455 36,000  Level FlightAware ADS-B (EGSP)
14:10 43.5094 -80.7436 212° Southwest 397 457 36,000  Level FlightAware ADS-B (EGSP)
14:11 43.4339 -80.8092 212° Southwest 397 457 36,000  Level FlightAware ADS-B (EGSP)
14:12 43.3710 -80.8636 212° Southwest 397 457 36,000  Level FlightAware ADS-B (EGSP)
14:12 43.3126 -80.9138 212° Southwest 397 457 36,000  Level FlightAware ADS-B (EGSP)
14:13 43.2581 -80.9607 212° Southwest 395 455 36,000  Level FlightAware ADS-B (EGSP)
14:14 43.1889 -81.0200 212° Southwest 393 452 36,000  Level FlightAware ADS-B (EGSP)
14:14 43.1239 -81.0757 212° Southwest 393 452 36,000  Level FlightAware ADS-B (EGSP)
14:15 43.0624 -81.1282 212° Southwest 394 453 36,000  Level FlightAware ADS-B (EGSP)
14:16 42.9985 -81.1726 207° Southwest 403 464 36,000  Level FlightAware ADS-B (EGSP)
14:16 42.9288 -81.2160 205° Southwest 399 459 36,000  Level FlightAware ADS-B (EGSP)
14:17 42.8666 -81.2550 205° Southwest 399 459 36,000  Level FlightAware ADS-B (EGSP)
14:18 42.7949 -81.2993 204° Southwest 400 460 36,000  Level FlightAware ADS-B (EGSP)
14:18 42.7295 -81.3363 203° Southwest 408 470 36,000  Level FlightAware ADS-B (EGSP)
14:19 42.6552 -81.3724 200° South 405 466 36,000  Level FlightAware ADS-B (EGSP)
14:20 42.5995 -81.3999 200° South 404 465 36,000  Level FlightAware ADS-B (EGSP)
14:20 42.5474 -81.4262 200° South 402 463 36,000  Level FlightAware ADS-B (EGSP)
14:21 42.4485 -81.4760 200° South 400 460 36,000  Level FlightAware ADS-B (EGSP)
14:22 42.3832 -81.5088 200° South 399 459 36,000  Level FlightAware ADS-B (EGSP)
14:22 42.3116 -81.5447 200° South 399 459 36,000  Level FlightAware ADS-B (EGSP)
14:23 42.2428 -81.5783 200° South 399 459 36,000  Level Cleveland Center
14:24 42.1214 -81.6394 200° South 396 456 36,000  Level Cleveland Center
14:25 42.0169 -81.6906 200° South 396 456 36,000  Level Cleveland Center
14:26 41.9122 -81.7431 200° South 398 458 36,000  Level Cleveland Center
14:27 41.8083 -81.7936 200° South 395 455 36,000  Level Cleveland Center
14:28 41.7036 -81.8442 200° South 398 458 36,000  Level Cleveland Center
14:29 41.5992 -81.8964 201° Southwest 397 457 36,000  Level Cleveland Center
14:31 41.4947 -81.9472 200° South 399 459 36,000  Level Cleveland Center
14:32 41.3808 -82.0028 200° South 395 455 36,000  Level Cleveland Center
14:33 41.2786 -82.0514 200° South 392 451 36,000  Level Cleveland Center
14:34 41.1633 -82.1081 200° South 394 453 36,000  Level Cleveland Center
14:35 41.0644 -82.1553 200° South 397 457 36,000  Level Cleveland Center
14:40 40.4390 -82.4535 200° South 395 455 36,000  Level FlightAware ADS-B
14:42 40.3156 -82.5115 200° South 391 450 36,000  Level FlightAware ADS-B
14:42 40.2593 -82.5378 200° South 387 445 36,000  Level FlightAware ADS-B
14:43 40.1933 -82.5681 199° South 391 450 36,000  Level FlightAware ADS-B
14:44 40.1102 -82.5893 191° South 403 464 36,000  Level FlightAware ADS-B
14:44 40.0397 -82.5950 183° South 408 470 36,000  Level FlightAware ADS-B
14:45 39.9598 -82.6013 183° South 408 470 36,000  Level FlightAware ADS-B
14:46 39.9165 -82.6044 183° South 405 466 36,000  Level FlightAware ADS-B
14:46 39.8239 -82.6107 183° South 402 463 36,000  Level FlightAware ADS-B
14:50 39.4341 -82.6368 183° South 398 458 36,000  Level FlightAware ADS-B (KPMH)
14:54 38.9577 -82.6685 183° South 387 445 36,000  Level FlightAware ADS-B (KPMH)
14:55 38.8540 -82.6753 183° South 383 441 36,000  Level FlightAware ADS-B (KPMH)
14:56 38.7880 -82.6796 183° South 383 441 36,000  Level FlightAware ADS-B (KPMH)
14:56 38.7417 -82.6825 183° South 381 438 36,000  Level Indianapolis Center
14:57 38.6306 -82.6889 183° South 380 437 36,000  Level Indianapolis Center
14:58 38.5264 -82.6956 183° South 375 432 36,000  Level Indianapolis Center
14:59 38.4047 -82.7036 183° South 375 432 36,000  Level Indianapolis Center
15:00 38.3003 -82.7108 183° South 374 430 36,000  Level Indianapolis Center
15:02 38.1972 -82.7178 183° South 370 426 36,000  Level Indianapolis Center
15:03 38.0947 -82.7250 183° South 369 425 36,000  Level Indianapolis Center
15:04 37.9925 -82.7306 182° South 366 421 36,000  Level Indianapolis Center
15:05 37.8897 -82.7375 183° South 368 423 36,000  Level Indianapolis Center
15:06 37.7872 -82.7450 183° South 369 425 36,000  Level Indianapolis Center
15:07 37.6717 -82.7644 188° South 361 415 36,000  Level Indianapolis Center
15:08 37.5861 -82.8108 203° Southwest 336 387 36,000  Level Indianapolis Center
15:09 37.5064 -82.8658 209° Southwest 328 377 36,000  Level Indianapolis Center
15:10 37.4244 -82.9181 207° Southwest 330 380 36,000  Level Indianapolis Center
15:11 37.3439 -82.9722 208° Southwest 329 379 36,000  Level Indianapolis Center
15:12 37.2628 -83.0247 207° Southwest 328 377 36,000  Level Indianapolis Center
15:13 37.1700 -83.0856 208° Southwest 325 374 36,000  Level Indianapolis Center
15:14 37.0897 -83.1367 207° Southwest 326 375 36,000  Level Indianapolis Center
15:15 37.0094 -83.1903 208° Southwest 328 377 36,000  Level Indianapolis Center
15:16 36.9283 -83.2422 207° Southwest 328 377 36,000  Level Indianapolis Center
15:17 36.8469 -83.2947 207° Southwest 329 379 36,000  Level Indianapolis Center
15:18 36.7519 -83.3547 207° Southwest 330 380 36,000  Level Indianapolis Center
15:19 36.6700 -83.4075 207° Southwest 331 381 36,000 -360 Level Indianapolis Center
15:20 36.5881 -83.4603 207° Southwest 333 383 35,300 -540 Descending Indianapolis Center
15:21 36.5083 -83.5106 207° Southwest 334 384 35,000 -180 Descending Indianapolis Center
15:22 36.4281 -83.5639 208° Southwest 329 379 35,000  Level Indianapolis Center
15:23 36.3289 -83.6267 207° Southwest 333 383 35,000  Level Indianapolis Center
15:24 36.2467 -83.6783 207° Southwest 331 381 35,000  Level Indianapolis Center
15:25 36.1636 -83.7314 207° Southwest 334 384 35,000  Level Indianapolis Center
15:26 36.0808 -83.7844 207° Southwest 330 380 35,000  Level Atlanta Center
15:27 35.9997 -83.8361 207° Southwest 330 380 35,000  Level Atlanta Center
15:28 35.9142 -83.8875 206° Southwest 335 386 35,000  Level Atlanta Center
15:29 35.8161 -83.9183 194° South 349 402 35,000  Level Atlanta Center
15:30 35.7369 -83.9364 190° South 355 409 35,000  Level Atlanta Center
15:31 35.6264 -83.9647 192° South 366 421 35,000  Level Atlanta Center
15:32 35.5264 -83.9878 191° South 371 427 35,000  Level Atlanta Center
15:33 35.4242 -84.0108 190° South 376 433 35,000  Level Atlanta Center
15:34 35.3239 -84.0361 192° South 371 427 35,000  Level Atlanta Center
15:35 35.2217 -84.0617 192° South 371 427 35,000  Level Atlanta Center
15:36 35.1194 -84.0869 191° South 371 427 35,000 300 Level Atlanta Center
15:37 35.0192 -84.1097 191° South 371 427 35,600 480 Climbing Atlanta Center
15:38 34.9150 -84.1375 192° South 376 433 36,000 180 Climbing Atlanta Center
15:39 34.8106 -84.1603 190° South 376 433 36,000  Level Atlanta Center
15:40 34.7061 -84.1853 191° South 376 433 36,000  Level Atlanta Center
15:41 34.5936 -84.2078 189° South 375 432 36,000  Level Atlanta Center
15:42 34.4892 -84.2328 191° South 375 432 36,000  Level Atlanta Center
15:43 34.3847 -84.2603 192° South 381 438 36,000  Level Atlanta Center
15:44 34.2783 -84.2850 191° South 386 444 36,000  Level Atlanta Center
15:45 34.1739 -84.3075 190° South 391 450 36,000  Level Atlanta Center
15:46 34.0694 -84.3347 192° South 397 457 36,000  Level Atlanta Center
15:47 33.9650 -84.3594 191° South 397 457 36,000  Level Atlanta Center
15:48 33.8439 -84.3889 191° South 397 457 36,000 180 Level Atlanta Center
15:49 33.7414 -84.4111 190° South 392 451 36,400 480 Climbing Atlanta Center
15:50 33.6350 -84.4356 191° South 398 458 37,000 300 Climbing Atlanta Center
15:51 33.5097 -84.4375 181° South 411 473 37,000  Level Atlanta Center
15:52 33.3928 -84.4319 178° South 421 484 37,000  Level Atlanta Center
15:53 33.2822 -84.4314 180° South 427 491 37,000  Level Atlanta Center
15:54 33.1550 -84.4333 181° South 427 491 37,000  Level Atlanta Center
15:55 33.0381 -84.4328 180° South 426 490 37,000  Level Atlanta Center
15:56 32.9192 -84.4272 178° South 426 490 37,000  Level Atlanta Center
15:57 32.7958 -84.4267 180° South 432 497 37,000  Level Atlanta Center
15:58 32.6811 -84.4164 176° South 432 497 37,000  Level Atlanta Center
15:59 32.5581 -84.4158 180° South 432 497 37,000  Level Atlanta Center
16:00 32.4389 -84.4131 179° South 438 504 37,000  Level Atlanta Center
16:01 32.3158 -84.4125 180° South 438 504 37,000  Level Atlanta Center
16:02 32.1969 -84.4094 179° South 438 504 37,000  Level Atlanta Center
16:03 32.0781 -84.4067 179° South 438 504 37,000  Level Atlanta Center
16:04 31.9614 -84.4033 179° South 450 518 37,000  Level Jacksonville Center
16:10 31.2946 -84.3885 179° South 435 501 37,000  Level FlightAware ADS-B (KTLH)
16:12 31.1493 -84.3855 179° South 438 504 37,000  Level FlightAware ADS-B (KTLH)
16:13 30.8726 -84.3802 179° South 440 506 37,000  Level FlightAware ADS-B (KTLH)
16:14 30.8726 -84.3802 179° South 442 509 37,000  Level FlightAware ADS-B (KTLH)
16:14 30.7317 -84.3774 179° South 442 509 37,000  Level FlightAware ADS-B (KTLH)
16:15 30.6520 -84.3711 176° South 453 521 37,000  Level FlightAware ADS-B (KTLH)
16:16 30.5727 -84.3532 169° South 466 536 37,000  Level FlightAware ADS-B (KTLH)
16:16 30.5367 -84.3414 164° South 478 550 37,000  Level FlightAware ADS-B (KTLH)
16:17 30.4525 -84.3032 159° South 485 558 37,000  Level FlightAware ADS-B (KTLH)
16:17 30.3618 -84.2460 151° Southeast 489 563 37,000  Level FlightAware ADS-B (KTLH)
16:18 30.2923 -84.2007 151° Southeast 489 563 37,000  Level FlightAware ADS-B (KTLH)
16:19 30.2373 -84.1649 151° Southeast 488 562 37,000  Level FlightAware ADS-B (KTLH)
16:19 30.1126 -84.0838 151° Southeast 489 563 37,000  Level FlightAware ADS-B (KTLH)
16:20 30.0603 -84.0498 151° Southeast 490 564 37,000  Level FlightAware ADS-B (KTLH)
16:21 29.8980 -83.9445 151° Southeast 493 567 37,000  Level FlightAware ADS-B (KTLH)
16:22 29.7847 -83.8714 151° Southeast 493 567 37,000  Level Jacksonville Center
16:23 29.6661 -83.7961 151° Southeast 493 567 37,000  Level Jacksonville Center
16:24 29.5456 -83.7208 151° Southeast 493 567 37,000  Level Jacksonville Center
16:25 29.4272 -83.6461 151° Southeast 493 567 37,000  Level Jacksonville Center
16:26 29.3086 -83.5667 150° Southeast 493 567 37,000  Level Jacksonville Center
16:27 29.1919 -83.4944 152° Southeast 493 567 37,000  Level Jacksonville Center
16:28 29.0756 -83.4178 150° Southeast 488 562 37,000  Level Jacksonville Center
16:29 28.9567 -83.3433 151° Southeast 488 562 37,000  Level Jacksonville Center
16:30 28.8403 -83.2694 151° Southeast 482 555 37,000  Level Jacksonville Center
16:31 28.7236 -83.1933 150° Southeast 482 555 37,000  Level Jacksonville Center
16:32 28.6067 -83.1219 152° Southeast 482 555 37,000  Level Jacksonville Center
16:37 27.9853 -82.7322 152° Southeast 487 560 37,000  Level FlightAware ADS-B (KMCO)
16:38 27.9393 -82.7037 151° Southeast 487 560 37,000  Level FlightAware ADS-B (KMCO)
16:39 27.8090 -82.6189 150° Southeast 490 564 37,000  Level FlightAware ADS-B (VOCI / COK)
16:40 27.7376 -82.5707 149° Southeast 490 564 37,000  Level FlightAware ADS-B (KMCO)
16:40 27.6776 -82.5306 149° Southeast 491 565 37,000  Level FlightAware ADS-B (KMCO)
16:41 27.5857 -82.4694 149° Southeast 491 565 37,000  Level FlightAware ADS-B (KMCO)
16:41 27.5289 -82.4317 150° Southeast 491 565 37,000  Level FlightAware ADS-B (VOCI / COK)
16:42 27.4841 -82.4021 150° Southeast 492 566 37,000  Level FlightAware ADS-B (KMCO)
16:43 27.3823 -82.3346 150° Southeast 491 565 37,000  Level FlightAware ADS-B (KMCO)
16:43 27.3481 -82.3120 150° Southeast 491 565 37,000  Level FlightAware ADS-B (VOCI / COK)
16:44 27.2683 -82.2592 150° Southeast 488 562 37,000  Level FlightAware ADS-B (KMCO)
16:45 27.1493 -82.1807 150° Southeast 488 562 37,000  Level FlightAware ADS-B (KMCO)
16:45 27.0725 -82.1302 150° Southeast 489 563 37,000  Level FlightAware ADS-B (KMCO)
16:47 26.8871 -82.0086 150° Southeast 487 560 37,000  Level FlightAware ADS-B (KMCO)
16:48 26.8016 -81.9527 150° Southeast 488 562 37,000  Level FlightAware ADS-B (KMCO)
16:48 26.7278 -81.9045 150° Southeast 489 563 37,000  Level FlightAware ADS-B (KMCO)
16:49 26.6437 -81.8498 150° Southeast 491 565 37,000  Level FlightAware ADS-B (KMCO)
16:50 26.5628 -81.7978 150° Southeast 492 566 37,000  Level FlightAware ADS-B (KMCO)
16:50 26.4830 -81.7595 157° South 487 560 37,000  Level FlightAware ADS-B (KMCO)
16:51 26.4363 -81.7419 161° South 487 560 37,000  Level FlightAware ADS-B (KMCO)
16:52 26.2691 -81.6766 161° South 488 562 37,000  Level FlightAware ADS-B (KMCO)
16:54 26.0638 -81.5991 161° South 490 564 37,000  Level FlightAware ADS-B (KMCO)
16:54 25.9831 -81.5687 161° South 487 560 37,000  Level FlightAware ADS-B (KMCO)
16:55 25.8848 -81.5317 161° South 486 559 37,000  Level FlightAware ADS-B (KMCO)
16:56 25.7961 -81.4984 161° South 486 559 37,000  Level FlightAware ADS-B (KMCO)
16:56 25.7102 -81.4662 161° South 489 563 37,000  Level FlightAware ADS-B (KMCO)
16:57 25.5875 -81.4203 161° South 489 563 37,000  Level FlightAware ADS-B (KMCO)
16:58 25.4489 -81.3711 161° South 496 571 37,000 -240 Level Miami Center
16:59 25.3183 -81.3456 170° South 489 563 36,500 -780 Descending Miami Center
17:00 25.2058 -81.4033 205° Southwest 448 516 35,500 -1,020 Descending Miami Center
17:01 25.1111 -81.4939 221° Southwest 427 491 34,500 -1,020 Descending Miami Center
17:02 25.0206 -81.5844 222° Southwest 438 504 33,500 -1,020 Descending Miami Center
17:03 24.9281 -81.6703 220° Southwest 445 512 32,500 -960 Descending Miami Center
17:04 24.8461 -81.7472 220° Southwest 436 502 31,600 -960 Descending Miami Center
17:05 24.7575 -81.8328 221° Southwest 431 496 30,600 -1,080 Descending Miami Center
17:06 24.6564 -81.9200 218° Southwest 426 490 29,500 -1,020 Descending Miami Center
17:07 24.5725 -81.9967 220° Southwest 414 476 28,600 -960 Descending Miami Center
17:08 24.4861 -82.0728 219° Southwest 403 464 27,600 -900 Descending Miami Center
17:09 24.4042 -82.1536 222° Southwest 403 464 26,800 -900 Descending Miami Center
17:10 24.3200 -82.2253 218° Southwest 398 458 25,900 -900 Descending Miami Center
17:11 24.2422 -82.3017 222° Southwest 393 452 25,000 -900 Descending Miami Center
17:13 24.1055 -82.3135 230° Southwest  Level Estimated
17:20 23.3822 -82.4332 175° South  Level FlightAware Approximate
17:21 23.2684 -82.4218 175° South  Level FlightAware Approximate
17:22 23.1543 -82.4167 180° South  Level FlightAware Approximate
17:23 23.0415 -82.4000 180° South  Level FlightAware Approximate
17:24 22.9891 -82.4091 180° South  Level Estimated
17:25 22.9891 -82.4091 180° South  Level Estimated
17:26 22.9891 -82.4091 180° South  Level Estimated
17:27 22.9891 -82.4091 180° South  Level Estimated
17:28 22.9891 -82.4091 180° South  Level Estimated
17:29 22.9891 -82.4091 180° South  Level Estimated
17:30 22.9891 -82.4091 180° South  Level Estimated
17:31 22.9891 -82.4091 180° South  Level Estimated
17:32 22.9891 -82.4091 180° South  Level Estimated
17:33 22.9891 -82.4091 180° South  Level Estimated
17:34 22.9891 -82.4091 180° South  Level Estimated
17:35 22.9891 -82.4091 180° South  Level Estimated
17:36 22.9891 -82.4091 180° South  Level Estimated
17:37 22.9891 -82.4091 180° South  Level Estimated
17:38 22.9891 -82.4091 180° South  Level Estimated
17:39 22.9891 -82.4091 180° South  Level Estimated
17:40 22.9891 -82.4091 180° South  Level Estimated
17:41 22.9891 -82.4091 180° South  Level Estimated
17:42 22.9891 -82.4091 180° South  Level Estimated
17:43 22.9891 -82.4091 180° South  Level Estimated
17:44 22.9891 -82.4091 180° South  Level Estimated
17:45 22.9891 -82.4091 180° South  Level Estimated
17:46 22.9891 -82.4091 180° South  Level Estimated
17:47 22.9891 -82.4091 180° South  Level Estimated
17:48 22.9891 -82.4091 180° South  Level Estimated